Time;durP1;ratioP1;P1;durP2;ratioP2;P2;SDS_P1;SDS_P2;PMS_P1;PMS_P2;Temp;Humidity;BMP_temperature;BMP_pressure;BME280_temperature;BME280_humidity;BME280_pressure;Samples;Min_cycle;Max_cycle;Signal;HPM_P1;HPM_P2
2023/09/30 00:00:26;;;;;;;3.70;2.80;;;17.60;99.90;;;;;;5012671;28;20445;-66
2023/09/30 00:02:53;;;;;;;2.27;2.13;;;17.50;99.90;;;;;;5012799;28;20492;-66
2023/09/30 00:05:20;;;;;;;2.77;2.20;;;17.40;99.90;;;;;;5012581;28;20448;-66
2023/09/30 00:07:47;;;;;;;3.80;2.17;;;17.30;99.90;;;;;;5012797;28;20552;-66
2023/09/30 00:10:16;;;;;;;5.77;1.83;;;17.20;99.90;;;;;;5012882;28;20459;-66
2023/09/30 00:12:43;;;;;;;3.43;2.00;;;17.10;99.90;;;;;;5012500;28;20445;-65
2023/09/30 00:15:10;;;;;;;2.47;1.30;;;17.10;99.90;;;;;;5012951;28;20460;-66
2023/09/30 00:17:37;;;;;;;2.57;1.90;;;17.00;99.90;;;;;;5012934;28;20481;-66
2023/09/30 00:20:05;;;;;;;3.13;2.03;;;17.00;99.90;;;;;;5013436;28;20838;-66
2023/09/30 00:22:32;;;;;;;2.43;1.50;;;16.90;99.90;;;;;;5013298;28;20526;-66
2023/09/30 00:24:59;;;;;;;2.47;1.97;;;16.90;99.90;;;;;;5013121;28;20457;-66
2023/09/30 00:27:27;;;;;;;2.43;2.13;;;16.90;99.90;;;;;;5012969;28;21017;-65
2023/09/30 00:29:54;;;;;;;3.07;1.87;;;16.90;99.90;;;;;;5013121;28;20965;-66
2023/09/30 00:32:21;;;;;;;3.73;1.90;;;16.80;99.90;;;;;;5013092;28;20540;-66
2023/09/30 00:34:48;;;;;;;2.30;1.90;;;16.80;99.90;;;;;;5012949;28;20891;-66
2023/09/30 00:37:15;;;;;;;3.07;2.30;;;16.70;99.90;;;;;;5012851;28;20536;-66
2023/09/30 00:39:43;;;;;;;4.20;2.00;;;16.70;99.90;;;;;;5013071;28;20459;-66
2023/09/30 00:42:10;;;;;;;3.63;2.37;;;16.70;99.90;;;;;;5011921;28;20487;-66
2023/09/30 00:44:38;;;;;;;4.13;1.77;;;16.70;99.90;;;;;;5012768;28;20875;-66
2023/09/30 00:47:06;;;;;;;3.10;2.20;;;16.70;99.90;;;;;;5012704;28;20465;-66
2023/09/30 00:49:33;;;;;;;4.33;2.03;;;16.70;99.90;;;;;;5012762;28;20532;-66
2023/09/30 00:52:01;;;;;;;2.50;1.70;;;16.70;99.90;;;;;;5012883;28;20544;-66
2023/09/30 00:54:28;;;;;;;3.80;3.00;;;16.70;99.90;;;;;;5012344;28;20879;-66
2023/09/30 00:56:57;;;;;;;3.57;2.60;;;16.70;99.90;;;;;;5012552;28;20994;-66
2023/09/30 00:59:26;;;;;;;4.07;1.70;;;16.70;99.90;;;;;;5012714;28;20488;-66
2023/09/30 01:01:57;;;;;;;2.70;1.67;;;16.70;99.90;;;;;;5012557;28;20444;-66
2023/09/30 01:04:25;;;;;;;2.50;1.60;;;16.70;99.90;;;;;;5012222;28;20536;-66
2023/09/30 01:06:52;;;;;;;1.70;1.60;;;16.70;99.90;;;;;;5012353;28;20471;-66
2023/09/30 01:09:20;;;;;;;2.53;1.50;;;16.80;99.90;;;;;;5012340;28;20821;-66
2023/09/30 01:11:47;;;;;;;2.07;1.93;;;16.80;99.90;;;;;;5012422;28;20451;-66
2023/09/30 01:14:28;;;;;;;2.43;1.60;;;16.80;99.90;;;;;;5012108;28;20866;-66
2023/09/30 01:16:56;;;;;;;3.03;1.90;;;16.80;99.90;;;;;;5012027;28;20915;-66
2023/09/30 01:19:24;;;;;;;5.37;2.47;;;16.80;99.90;;;;;;5012016;28;20484;-66
2023/09/30 01:21:56;;;;;;;2.97;2.67;;;16.80;99.90;;;;;;5012011;28;20449;-66
2023/09/30 01:24:23;;;;;;;2.20;2.00;;;16.70;99.90;;;;;;5011915;28;20578;-66
2023/09/30 01:26:50;;;;;;;3.83;1.70;;;16.70;99.90;;;;;;5012121;28;20555;-66
2023/09/30 01:29:17;;;;;;;2.80;1.93;;;16.70;99.90;;;;;;5012147;28;20440;-66
2023/09/30 01:31:47;;;;;;;3.70;1.90;;;16.80;99.90;;;;;;5011920;28;20963;-66
2023/09/30 01:34:14;;;;;;;1.90;1.80;;;16.80;99.90;;;;;;5011613;28;20457;-66
2023/09/30 01:36:41;;;;;;;2.77;2.00;;;16.80;99.90;;;;;;5012104;28;20453;-66
2023/09/30 01:39:10;;;;;;;2.27;2.07;;;16.70;99.90;;;;;;5012094;28;20532;-66
2023/09/30 01:41:37;;;;;;;2.10;1.90;;;16.70;99.90;;;;;;5011951;28;20451;-66
2023/09/30 01:44:04;;;;;;;2.30;2.10;;;16.70;99.90;;;;;;5011505;28;20500;-66
2023/09/30 01:46:31;;;;;;;3.57;2.10;;;16.70;99.90;;;;;;5011664;28;20894;-65
2023/09/30 01:48:58;;;;;;;2.83;2.53;;;16.70;99.90;;;;;;5012203;28;20449;-65
2023/09/30 01:51:24;;;;;;;2.10;1.90;;;16.70;99.90;;;;;;5011708;28;20541;-66
2023/09/30 01:53:51;;;;;;;3.47;1.83;;;16.70;99.90;;;;;;5011288;28;20981;-66
2023/09/30 01:56:20;;;;;;;2.50;2.30;;;16.70;99.90;;;;;;5011859;28;20452;-66
2023/09/30 01:58:46;;;;;;;4.90;2.10;;;16.70;99.90;;;;;;5011472;28;20500;-66
2023/09/30 02:01:13;;;;;;;2.00;1.90;;;16.70;99.90;;;;;;5011380;28;20454;-66
2023/09/30 02:03:41;;;;;;;2.10;1.90;;;16.70;99.90;;;;;;5011361;28;20496;-66
2023/09/30 02:06:08;;;;;;;4.17;2.00;;;16.70;99.90;;;;;;5011872;28;20453;-66
2023/09/30 02:08:36;;;;;;;6.43;1.90;;;16.70;99.90;;;;;;5011452;28;20468;-66
2023/09/30 02:11:05;;;;;;;5.77;2.20;;;16.70;99.90;;;;;;5011380;28;20487;-66
2023/09/30 02:13:34;;;;;;;3.17;2.23;;;16.70;99.90;;;;;;5011092;28;20870;-66
2023/09/30 02:16:01;;;;;;;2.73;2.47;;;16.70;99.90;;;;;;5011296;28;20457;-66
2023/09/30 02:18:28;;;;;;;5.43;2.40;;;16.70;99.90;;;;;;5011213;28;20477;-66
2023/09/30 02:20:55;;;;;;;4.30;3.07;;;16.70;99.90;;;;;;5011490;28;20840;-66
2023/09/30 02:23:22;;;;;;;3.87;2.20;;;16.70;99.90;;;;;;5011180;28;20495;-66
2023/09/30 02:25:49;;;;;;;2.47;2.20;;;16.70;99.90;;;;;;5011312;28;20552;-66
2023/09/30 02:28:16;;;;;;;2.40;2.20;;;16.70;99.90;;;;;;5011004;28;20845;-66
2023/09/30 02:30:44;;;;;;;4.03;2.17;;;16.70;99.90;;;;;;5011103;28;20547;-66
2023/09/30 02:33:11;;;;;;;3.73;2.03;;;16.70;99.90;;;;;;5011164;28;20892;-66
2023/09/30 02:35:38;;;;;;;2.80;2.20;;;16.70;99.90;;;;;;5011156;28;20453;-66
2023/09/30 02:38:06;;;;;;;2.57;1.90;;;16.70;99.90;;;;;;5011171;28;20940;-66
2023/09/30 02:40:33;;;;;;;4.97;3.00;;;16.70;99.90;;;;;;5011263;28;20453;-66
2023/09/30 02:43:00;;;;;;;3.23;2.70;;;16.70;99.90;;;;;;5010667;28;20877;-66
2023/09/30 02:45:27;;;;;;;3.47;2.30;;;16.70;99.90;;;;;;5011240;28;20455;-66
2023/09/30 02:47:55;;;;;;;3.90;2.30;;;16.70;99.90;;;;;;5011140;28;20579;-66
2023/09/30 02:50:22;;;;;;;2.90;2.20;;;16.70;99.90;;;;;;5011013;28;20448;-66
2023/09/30 02:52:49;;;;;;;3.33;1.87;;;16.70;99.90;;;;;;5011026;28;20458;-66
2023/09/30 02:55:17;;;;;;;1.90;1.70;;;16.70;99.90;;;;;;5010694;28;20457;-66
2023/09/30 02:57:43;;;;;;;3.37;2.10;;;16.70;99.90;;;;;;5010777;28;20472;-66
2023/09/30 03:00:23;;;;;;;1.80;1.70;;;16.60;99.90;;;;;;5010870;28;20543;-66
2023/09/30 03:02:50;;;;;;;2.33;1.87;;;16.60;99.90;;;;;;5010772;28;20451;-66
2023/09/30 03:05:18;;;;;;;3.30;2.17;;;16.50;99.90;;;;;;5012808;28;20644;-66
2023/09/30 03:07:46;;;;;;;3.77;1.97;;;16.50;99.90;;;;;;5014733;28;20470;-66
2023/09/30 03:10:14;;;;;;;4.30;3.20;;;16.50;99.90;;;;;;5014439;28;20453;-66
2023/09/30 03:12:41;;;;;;;2.77;1.60;;;16.40;99.90;;;;;;5014472;28;20469;-66
2023/09/30 03:15:10;;;;;;;3.10;2.20;;;16.40;99.90;;;;;;5014373;28;20452;-66
2023/09/30 03:17:37;;;;;;;4.73;2.10;;;16.40;99.90;;;;;;5014069;28;20484;-66
2023/09/30 03:20:11;;;;;;;3.20;1.93;;;16.30;99.90;;;;;;5014804;28;20467;-66
2023/09/30 03:22:40;;;;;;;6.17;2.10;;;16.30;99.90;;;;;;5014493;28;20455;-66
2023/09/30 03:25:09;;;;;;;6.90;2.47;;;16.20;99.90;;;;;;5014122;28;20475;-66
2023/09/30 03:27:36;;;;;;;2.23;2.00;;;16.20;99.90;;;;;;5014219;28;20467;-66
2023/09/30 03:30:03;;;;;;;2.83;2.17;;;16.20;99.90;;;;;;5014082;28;21015;-66
2023/09/30 03:32:33;;;;;;;2.00;1.80;;;16.10;99.90;;;;;;5014554;28;20444;-65
2023/09/30 03:35:00;;;;;;;1.80;1.70;;;16.10;99.90;;;;;;5014090;28;20447;-66
2023/09/30 03:37:27;;;;;;;2.60;1.77;;;16.10;99.90;;;;;;5014140;28;20467;-66
2023/09/30 03:39:56;;;;;;;2.30;2.20;;;16.00;99.90;;;;;;5014116;28;20534;-65
2023/09/30 03:42:23;;;;;;;4.73;2.00;;;16.00;99.90;;;;;;5013927;28;20461;-66
2023/09/30 03:44:50;;;;;;;5.27;2.90;;;15.90;99.90;;;;;;5014082;28;20590;-66
2023/09/30 03:47:17;;;;;;;2.90;2.03;;;15.90;99.90;;;;;;5014041;28;20474;-66
2023/09/30 03:49:44;;;;;;;2.43;2.23;;;15.80;99.90;;;;;;5013954;28;20452;-65
2023/09/30 03:52:11;;;;;;;2.73;2.50;;;15.80;99.90;;;;;;5013098;28;20912;-66
2023/09/30 03:54:41;;;;;;;1.40;1.30;;;15.80;99.90;;;;;;5013731;28;20454;-65
2023/09/30 03:57:12;;;;;;;2.47;2.00;;;15.70;99.90;;;;;;5013640;28;20475;-66
2023/09/30 03:59:39;;;;;;;2.23;2.03;;;15.70;99.90;;;;;;5013994;28;20833;-66
2023/09/30 04:02:08;;;;;;;2.10;1.67;;;15.70;99.90;;;;;;5013743;28;20451;-66
2023/09/30 04:04:36;;;;;;;2.20;1.27;;;15.60;99.90;;;;;;5013470;28;21004;-66
2023/09/30 04:07:09;;;;;;;3.57;2.63;;;15.60;99.90;;;;;;5013569;28;20479;-65
2023/09/30 04:09:37;;;;;;;2.90;2.27;;;15.60;99.90;;;;;;5013584;28;20483;-65
2023/09/30 04:12:04;;;;;;;1.87;1.60;;;15.60;99.90;;;;;;5013207;28;20451;-65
2023/09/30 04:14:32;;;;;;;3.17;2.00;;;15.60;99.90;;;;;;5011898;28;20485;-66
2023/09/30 04:16:59;;;;;;;3.87;2.30;;;15.60;99.90;;;;;;5011869;28;20470;-66
2023/09/30 04:19:26;;;;;;;3.03;1.80;;;15.60;99.90;;;;;;5013246;28;20498;-66
2023/09/30 04:21:52;;;;;;;3.40;2.10;;;15.60;99.90;;;;;;5013289;28;20449;-65
2023/09/30 04:24:21;;;;;;;3.20;1.70;;;15.60;99.90;;;;;;5012869;28;20483;-66
2023/09/30 04:26:50;;;;;;;3.00;2.17;;;15.50;99.90;;;;;;5012986;28;21028;-66
2023/09/30 04:29:17;;;;;;;1.73;1.43;;;15.50;99.90;;;;;;5013295;28;20459;-66
2023/09/30 04:31:45;;;;;;;3.13;1.80;;;15.50;99.90;;;;;;5013126;28;20497;-66
2023/09/30 04:34:12;;;;;;;2.60;1.90;;;15.50;99.90;;;;;;5012966;28;20914;-65
2023/09/30 04:36:39;;;;;;;3.30;1.53;;;15.50;99.90;;;;;;5012852;28;20515;-66
2023/09/30 04:39:06;;;;;;;3.50;2.43;;;15.50;99.90;;;;;;5013217;28;20456;-65
2023/09/30 04:41:33;;;;;;;3.07;1.93;;;15.40;99.90;;;;;;5012802;28;20984;-66
2023/09/30 04:44:00;;;;;;;1.80;1.70;;;15.40;99.90;;;;;;5012269;28;20488;-65
2023/09/30 04:46:27;;;;;;;1.97;1.87;;;15.40;99.90;;;;;;5012895;28;20458;-65
2023/09/30 04:48:55;;;;;;;3.37;2.33;;;15.40;99.90;;;;;;5012805;28;20446;-66
2023/09/30 04:51:22;;;;;;;5.00;2.63;;;15.40;99.90;;;;;;5012655;28;20538;-65
2023/09/30 04:53:49;;;;;;;6.00;2.00;;;15.40;99.90;;;;;;5012706;28;20440;-65
2023/09/30 04:56:16;;;;;;;4.47;2.00;;;15.30;99.90;;;;;;5012400;28;21022;-66
2023/09/30 04:58:44;;;;;;;4.00;2.37;;;15.30;99.90;;;;;;5012894;28;20464;-66
2023/09/30 05:01:11;;;;;;;6.70;2.50;;;15.30;99.90;;;;;;5012669;28;20458;-65
2023/09/30 05:03:38;;;;;;;2.67;2.23;;;15.20;99.90;;;;;;5012208;28;20518;-65
2023/09/30 05:06:07;;;;;;;3.93;2.27;;;15.20;99.90;;;;;;5012742;28;20443;-66
2023/09/30 05:08:35;;;;;;;3.10;2.10;;;15.20;99.90;;;;;;5012543;28;20475;-65
2023/09/30 05:11:02;;;;;;;3.37;1.67;;;15.20;99.90;;;;;;5011811;28;20444;-65
2023/09/30 05:13:29;;;;;;;1.90;1.80;;;15.20;99.90;;;;;;5012224;28;20450;-66
2023/09/30 05:15:55;;;;;;;2.90;2.33;;;15.10;99.90;;;;;;5012222;28;20459;-65
2023/09/30 05:18:23;;;;;;;4.50;2.40;;;15.10;99.90;;;;;;5012139;28;20576;-65
2023/09/30 05:20:50;;;;;;;5.03;2.73;;;15.10;99.90;;;;;;5012299;28;20957;-66
2023/09/30 05:23:18;;;;;;;5.90;2.50;;;15.00;99.90;;;;;;5011754;28;20461;-66
2023/09/30 05:25:45;;;;;;;2.60;2.40;;;15.00;99.90;;;;;;5012136;28;20465;-65
2023/09/30 05:28:13;;;;;;;3.17;1.70;;;15.00;99.90;;;;;;5011495;28;20529;-65
2023/09/30 05:30:40;;;;;;;6.00;2.63;;;15.00;99.90;;;;;;5011804;28;20875;-65
2023/09/30 05:33:07;;;;;;;2.60;2.10;;;15.00;99.90;;;;;;5011640;28;20460;-66
2023/09/30 05:35:34;;;;;;;3.23;1.97;;;15.00;99.90;;;;;;5012125;28;20942;-65
2023/09/30 05:38:01;;;;;;;2.13;1.90;;;15.00;99.90;;;;;;5011872;28;20495;-65
2023/09/30 05:40:30;;;;;;;3.67;2.10;;;14.90;99.90;;;;;;5012063;28;20526;-66
2023/09/30 05:42:59;;;;;;;3.07;2.27;;;15.00;99.90;;;;;;5011457;28;20463;-65
2023/09/30 05:45:27;;;;;;;3.73;1.97;;;14.90;99.90;;;;;;5011554;28;20547;-65
2023/09/30 05:47:54;;;;;;;9.93;4.50;;;15.00;99.90;;;;;;5011596;28;20467;-66
2023/09/30 05:50:24;;;;;;;3.60;3.30;;;15.00;99.90;;;;;;5011820;28;20451;-65
2023/09/30 05:52:51;;;;;;;2.97;2.63;;;15.00;99.90;;;;;;5011211;28;20459;-66
2023/09/30 05:55:20;;;;;;;2.43;1.97;;;15.00;99.90;;;;;;5011261;28;20445;-66
2023/09/30 05:57:49;;;;;;;3.23;2.90;;;15.00;99.90;;;;;;5011479;28;20899;-66
2023/09/30 06:00:22;;;;;;;4.13;2.20;;;15.00;99.90;;;;;;5011564;28;20461;-66
2023/09/30 06:02:49;;;;;;;4.10;2.17;;;15.10;99.90;;;;;;5011479;28;20968;-66
2023/09/30 06:05:18;;;;;;;2.63;1.80;;;15.10;99.90;;;;;;5011323;28;20482;-66
2023/09/30 06:07:45;;;;;;;2.60;2.30;;;15.10;99.90;;;;;;5011427;28;20472;-65
2023/09/30 06:10:12;;;;;;;2.67;2.30;;;15.20;99.90;;;;;;5011379;28;20534;-66
2023/09/30 06:12:40;;;;;;;2.67;2.47;;;15.20;99.90;;;;;;5011484;28;20462;-66
2023/09/30 06:15:10;;;;;;;4.07;2.60;;;15.20;99.90;;;;;;5011159;28;20442;-66
2023/09/30 06:17:37;;;;;;;2.00;1.90;;;15.20;99.90;;;;;;5011288;28;20478;-66
2023/09/30 06:20:09;;;;;;;3.60;2.00;;;15.30;99.90;;;;;;5011387;28;20545;-66
2023/09/30 06:22:36;;;;;;;4.43;2.60;;;15.30;99.90;;;;;;5011200;28;21098;-66
2023/09/30 06:25:03;;;;;;;3.80;2.40;;;15.30;99.90;;;;;;5010823;28;20485;-65
2023/09/30 06:27:31;;;;;;;4.40;2.40;;;15.30;99.90;;;;;;5011217;28;21008;-66
2023/09/30 06:29:58;;;;;;;6.30;3.17;;;15.30;99.90;;;;;;5011116;28;20985;-66
2023/09/30 06:32:26;;;;;;;4.23;2.63;;;15.40;99.90;;;;;;5011195;28;20473;-65
2023/09/30 06:34:53;;;;;;;4.17;2.80;;;15.40;99.90;;;;;;5010999;28;20441;-66
2023/09/30 06:37:20;;;;;;;5.60;2.87;;;15.50;99.90;;;;;;5011236;28;20471;-66
2023/09/30 06:39:48;;;;;;;4.10;2.53;;;15.50;99.90;;;;;;5013306;28;20447;-66
2023/09/30 06:42:14;;;;;;;5.23;3.10;;;15.60;99.90;;;;;;5015335;28;20450;-66
2023/09/30 06:44:41;;;;;;;2.33;1.87;;;15.60;99.90;;;;;;5015036;28;20498;-66
2023/09/30 06:47:12;;;;;;;3.23;2.87;;;15.70;99.90;;;;;;5014975;28;21083;-66
2023/09/30 06:49:40;;;;;;;4.00;3.70;;;15.70;99.90;;;;;;5015026;28;21016;-65
2023/09/30 06:52:07;;;;;;;3.93;3.30;;;15.80;99.90;;;;;;5015007;28;20447;-65
2023/09/30 06:54:34;;;;;;;5.20;3.00;;;15.80;99.90;;;;;;5014985;28;20546;-66
2023/09/30 06:57:01;;;;;;;4.00;3.27;;;15.90;99.90;;;;;;5015055;28;20527;-66
2023/09/30 06:59:27;;;;;;;4.37;2.40;;;15.90;99.90;;;;;;5015156;28;20454;-65
2023/09/30 07:01:55;;;;;;;6.50;2.83;;;16.00;99.90;;;;;;5015049;28;20446;-66
2023/09/30 07:04:22;;;;;;;5.67;2.83;;;16.00;99.90;;;;;;5014513;28;20492;-65
2023/09/30 07:06:50;;;;;;;4.23;2.60;;;16.00;99.90;;;;;;5014542;28;20470;-66
2023/09/30 07:09:19;;;;;;;5.53;3.00;;;16.00;99.90;;;;;;5014496;28;20451;-65
2023/09/30 07:11:46;;;;;;;5.73;2.80;;;16.00;99.90;;;;;;5014262;28;20456;-66
2023/09/30 07:14:13;;;;;;;6.23;3.10;;;16.00;99.90;;;;;;5014182;28;20933;-65
2023/09/30 07:16:40;;;;;;;3.77;2.63;;;16.00;99.90;;;;;;5014288;28;20551;-65
2023/09/30 07:19:07;;;;;;;4.20;2.63;;;16.10;99.90;;;;;;5014366;28;20926;-65
2023/09/30 07:21:34;;;;;;;12.03;5.00;;;16.10;99.90;;;;;;5014587;28;20443;-65
2023/09/30 07:24:02;;;;;;;3.93;2.90;;;16.10;99.90;;;;;;5014080;28;20844;-66
2023/09/30 07:26:29;;;;;;;5.07;3.13;;;16.10;99.90;;;;;;5014451;28;20829;-66
2023/09/30 07:28:56;;;;;;;4.27;3.00;;;16.10;99.90;;;;;;5014245;28;20486;-65
2023/09/30 07:31:23;;;;;;;3.90;3.30;;;16.10;99.90;;;;;;5014449;28;20456;-66
2023/09/30 07:33:50;;;;;;;2.73;2.50;;;16.10;99.90;;;;;;5014006;28;20453;-66
2023/09/30 07:36:17;;;;;;;9.20;3.90;;;16.10;99.90;;;;;;5014364;28;20447;-66
2023/09/30 07:38:44;;;;;;;3.53;2.53;;;16.20;99.90;;;;;;5014230;28;20506;-65
2023/09/30 07:41:12;;;;;;;5.63;5.13;;;16.20;99.90;;;;;;5014192;28;20459;-66
2023/09/30 07:43:39;;;;;;;3.80;3.40;;;16.20;99.90;;;;;;5013928;28;20467;-66
2023/09/30 07:46:07;;;;;;;4.20;3.17;;;16.20;99.90;;;;;;5013834;28;20574;-66
2023/09/30 07:48:34;;;;;;;7.00;3.07;;;16.30;99.90;;;;;;5013869;28;20464;-65
2023/09/30 07:51:01;;;;;;;4.20;3.10;;;16.30;99.90;;;;;;5013723;28;20831;-65
2023/09/30 07:53:28;;;;;;;5.43;3.00;;;16.30;99.90;;;;;;5013534;28;20483;-66
2023/09/30 07:55:56;;;;;;;4.77;3.37;;;16.30;99.90;;;;;;5013833;28;20918;-66
2023/09/30 07:58:25;;;;;;;3.40;2.83;;;16.30;99.90;;;;;;5013694;28;20472;-66
2023/09/30 08:00:51;;;;;;;2.67;2.47;;;16.40;99.90;;;;;;5013757;28;20452;-66
2023/09/30 08:03:18;;;;;;;4.13;3.03;;;16.40;99.90;;;;;;5013394;28;20539;-66
2023/09/30 08:05:46;;;;;;;5.07;3.10;;;16.50;99.90;;;;;;5013661;28;20492;-66
2023/09/30 08:08:14;;;;;;;4.07;3.23;;;16.50;99.90;;;;;;5013546;28;20478;-66
2023/09/30 08:10:41;;;;;;;4.40;3.80;;;16.60;99.90;;;;;;5013659;28;20448;-66
2023/09/30 08:13:09;;;;;;;4.37;2.77;;;16.60;99.90;;;;;;5013234;28;20810;-66
2023/09/30 08:15:37;;;;;;;3.23;2.63;;;16.70;99.90;;;;;;5013674;28;20535;-66
2023/09/30 08:18:05;;;;;;;5.80;3.47;;;16.80;99.90;;;;;;5013305;28;20483;-65
2023/09/30 08:20:32;;;;;;;4.63;3.37;;;16.90;99.90;;;;;;5013416;28;20452;-66
2023/09/30 08:23:00;;;;;;;5.87;3.97;;;16.90;99.90;;;;;;5013087;28;20452;-66
2023/09/30 08:25:27;;;;;;;3.50;3.00;;;16.90;99.90;;;;;;5013162;28;20508;-66
2023/09/30 08:27:54;;;;;;;3.53;3.10;;;17.00;99.90;;;;;;5011302;28;20495;-66
2023/09/30 08:30:21;;;;;;;3.37;3.07;;;17.10;99.90;;;;;;5012861;28;20451;-66
2023/09/30 08:32:50;;;;;;;5.20;3.27;;;17.10;99.90;;;;;;5013041;28;20449;-66
2023/09/30 08:35:16;;;;;;;5.10;2.70;;;17.20;99.90;;;;;;5012623;28;20445;-66
2023/09/30 08:37:43;;;;;;;6.20;3.73;;;17.30;99.90;;;;;;5012910;28;21169;-65
2023/09/30 08:40:11;;;;;;;3.77;3.40;;;17.40;99.90;;;;;;5012976;28;20452;-66
2023/09/30 08:42:41;;;;;;;3.63;3.30;;;17.40;99.90;;;;;;5012509;28;20449;-65
2023/09/30 08:45:11;;;;;;;5.13;3.77;;;17.50;99.90;;;;;;5009996;28;20567;-66
2023/09/30 08:47:38;;;;;;;4.63;3.50;;;17.60;99.90;;;;;;5010608;28;20475;-66
2023/09/30 08:50:10;;;;;;;7.10;4.20;;;17.70;99.90;;;;;;5012163;28;20445;-66
2023/09/30 08:52:39;;;;;;;6.83;3.87;;;17.80;99.90;;;;;;5012311;28;20995;-66
2023/09/30 08:55:08;;;;;;;4.37;3.20;;;17.90;99.90;;;;;;5011750;28;20445;-66
2023/09/30 08:57:39;;;;;;;5.40;3.20;;;17.90;99.90;;;;;;5012421;28;20544;-66
2023/09/30 09:00:08;;;;;;;5.00;3.40;;;18.00;99.90;;;;;;5012463;28;20453;-66
2023/09/30 09:02:35;;;;;;;5.23;3.10;;;18.10;99.90;;;;;;5010470;28;20881;-66
2023/09/30 09:05:03;;;;;;;6.10;4.10;;;18.10;99.90;;;;;;5012116;28;20505;-66
2023/09/30 09:07:31;;;;;;;3.77;3.43;;;18.20;99.90;;;;;;5011951;28;20466;-66
2023/09/30 09:10:05;;;;;;;4.10;3.70;;;18.30;99.90;;;;;;5012242;28;20505;-66
2023/09/30 09:12:34;;;;;;;4.00;3.50;;;18.40;99.90;;;;;;5012343;28;20827;-66
2023/09/30 09:15:00;;;;;;;4.13;3.60;;;18.40;99.90;;;;;;5011799;28;20988;-66
2023/09/30 09:17:42;;;;;;;4.27;3.80;;;18.50;99.90;;;;;;5011822;28;20481;-66
2023/09/30 09:20:10;;;;;;;6.07;3.60;;;18.50;99.90;;;;;;5011634;28;20448;-66
2023/09/30 09:22:43;;;;;;;5.13;3.43;;;18.50;99.90;;;;;;5011946;28;20453;-66
2023/09/30 09:25:10;;;;;;;4.70;3.77;;;18.50;99.90;;;;;;5011661;28;20490;-66
2023/09/30 09:27:38;;;;;;;6.93;4.00;;;18.60;99.90;;;;;;5011824;28;20658;-66
2023/09/30 09:30:16;;;;;;;5.17;3.30;;;18.70;99.90;;;;;;5011704;28;20468;-65
2023/09/30 09:32:54;;;;;;;4.30;3.13;;;18.80;99.90;;;;;;5011050;28;20821;-66
2023/09/30 09:35:21;;;;;;;4.07;3.77;;;18.80;99.90;;;;;;5012027;28;20445;-65
2023/09/30 09:38:00;;;;;;;5.03;4.40;;;18.90;99.90;;;;;;5011458;28;20470;-66
2023/09/30 09:40:28;;;;;;;4.70;3.10;;;19.00;99.90;;;;;;5011596;28;20452;-66
2023/09/30 09:42:56;;;;;;;10.53;5.00;;;19.00;99.90;;;;;;5013152;28;20945;-66
2023/09/30 09:45:23;;;;;;;5.80;4.40;;;19.10;99.90;;;;;;5011589;28;20577;-66
2023/09/30 09:47:52;;;;;;;4.40;3.70;;;19.10;99.90;;;;;;5011436;28;20496;-66
2023/09/30 09:50:21;;;;;;;4.60;3.60;;;19.00;99.90;;;;;;5010819;28;20552;-66
2023/09/30 09:52:50;;;;;;;6.13;4.97;;;19.00;99.90;;;;;;5010965;28;20458;-66
2023/09/30 09:55:21;;;;;;;7.57;4.73;;;19.00;99.90;;;;;;5010751;28;20479;-66
2023/09/30 09:57:49;;;;;;;4.30;3.90;;;19.00;99.90;;;;;;5011295;28;20480;-66
2023/09/30 10:00:18;;;;;;;6.50;3.63;;;19.00;99.90;;;;;;5011352;28;20449;-66
2023/09/30 10:02:46;;;;;;;5.97;4.10;;;19.10;99.90;;;;;;5010965;28;20446;-66
2023/09/30 10:05:14;;;;;;;4.67;3.40;;;19.30;99.90;;;;;;5010998;28;20497;-66
2023/09/30 10:07:47;;;;;;;5.57;4.07;;;19.40;99.90;;;;;;5010942;28;21041;-66
2023/09/30 10:10:23;;;;;;;5.93;4.23;;;19.40;99.90;;;;;;5010757;28;20552;-66
2023/09/30 10:12:50;;;;;;;5.20;4.70;;;19.30;99.90;;;;;;5010041;28;20537;-66
2023/09/30 10:15:36;;;;;;;5.07;4.60;;;19.20;99.90;;;;;;5010373;28;20439;-66
2023/09/30 10:18:06;;;;;;;6.80;5.00;;;19.20;99.90;;;;;;5006063;28;20829;-66
2023/09/30 10:20:34;;;;;;;5.03;4.20;;;19.10;99.90;;;;;;5010553;28;20481;-66
2023/09/30 10:23:27;;;;;;;8.00;4.53;;;19.10;99.90;;;;;;5010870;28;20445;-66
2023/09/30 10:26:15;;;;;;;6.03;4.13;;;19.00;99.90;;;;;;5010692;28;20547;-66
2023/09/30 10:28:44;;;;;;;9.73;5.80;;;19.00;99.90;;;;;;5008803;28;20472;-66
2023/09/30 10:31:15;;;;;;;6.73;4.60;;;19.00;99.90;;;;;;5009992;28;20480;-66
2023/09/30 10:34:20;;;;;;;5.37;4.10;;;19.00;99.90;;;;;;5010432;28;20916;-66
2023/09/30 10:36:47;;;;;;;7.17;4.60;;;19.00;99.90;;;;;;5010293;28;20450;-66
2023/09/30 10:39:15;;;;;;;5.07;4.47;;;18.90;99.90;;;;;;5010417;28;20445;-66
2023/09/30 10:42:01;;;;;;;5.63;4.80;;;18.90;99.90;;;;;;5010421;28;20443;-66
2023/09/30 10:44:34;;;;;;;5.70;4.40;;;18.90;99.90;;;;;;5010395;28;20456;-66
2023/09/30 10:47:01;;;;;;;6.70;5.23;;;18.90;99.90;;;;;;5010355;28;20489;-66
2023/09/30 10:49:38;;;;;;;5.60;4.90;;;19.00;99.90;;;;;;5010223;28;20936;-66
2023/09/30 10:52:05;;;;;;;7.23;5.27;;;19.00;99.90;;;;;;5010829;28;20520;-66
2023/09/30 10:54:33;;;;;;;6.00;4.97;;;19.10;99.90;;;;;;5010275;28;20446;-66
2023/09/30 10:57:03;;;;;;;8.40;5.23;;;19.30;99.90;;;;;;5009670;28;20486;-66
2023/09/30 10:59:32;;;;;;;6.30;4.40;;;19.40;99.90;;;;;;5010319;28;20475;-66
2023/09/30 11:01:59;;;;;;;6.40;5.57;;;19.50;99.90;;;;;;5010170;28;20450;-66
2023/09/30 11:04:27;;;;;;;5.37;4.87;;;19.60;99.90;;;;;;5010181;28;20541;-66
2023/09/30 11:06:54;;;;;;;8.23;6.33;;;19.70;99.90;;;;;;5010290;28;20490;-66
2023/09/30 11:09:23;;;;;;;7.30;4.77;;;19.70;99.90;;;;;;5010257;28;20442;-66
2023/09/30 11:11:52;;;;;;;6.23;5.20;;;19.70;99.50;;;;;;5010542;28;20524;-66
2023/09/30 11:14:21;;;;;;;6.70;4.97;;;19.70;99.90;;;;;;5010042;28;20450;-66
2023/09/30 11:16:50;;;;;;;5.90;5.07;;;19.70;99.90;;;;;;5009710;28;20474;-66
2023/09/30 11:19:17;;;;;;;6.03;4.93;;;19.80;99.90;;;;;;5010079;28;20879;-66
2023/09/30 11:21:44;;;;;;;6.77;5.50;;;19.90;99.00;;;;;;5010324;28;20537;-66
2023/09/30 11:24:12;;;;;;;6.00;5.00;;;20.00;99.40;;;;;;5009801;28;20442;-66
2023/09/30 11:26:41;;;;;;;7.00;5.90;;;20.00;98.40;;;;;;5013488;28;20852;-66
2023/09/30 11:29:09;;;;;;;6.80;5.37;;;20.00;98.60;;;;;;5013380;28;20820;-66
2023/09/30 11:31:39;;;;;;;6.90;6.20;;;20.10;98.40;;;;;;5013678;28;20454;-66
2023/09/30 11:34:07;;;;;;;7.80;6.10;;;20.10;98.50;;;;;;5013575;28;21039;-66
2023/09/30 11:36:36;;;;;;;7.17;5.37;;;20.10;98.20;;;;;;5013773;28;20480;-66
2023/09/30 11:39:03;;;;;;;6.73;4.83;;;20.00;98.60;;;;;;5013560;28;20542;-66
2023/09/30 11:41:38;;;;;;;7.00;5.13;;;20.00;98.10;;;;;;5013582;28;20447;-66
2023/09/30 11:44:08;;;;;;;8.83;5.10;;;19.90;97.80;;;;;;5013394;28;20455;-66
2023/09/30 11:46:52;;;;;;;6.50;5.77;;;19.80;97.40;;;;;;5013297;28;21111;-66
2023/09/30 11:49:29;;;;;;;5.97;5.37;;;19.80;96.80;;;;;;5013357;28;20449;-66
2023/09/30 11:51:58;;;;;;;5.53;4.70;;;19.80;96.80;;;;;;5013271;28;20521;-66
2023/09/30 11:54:33;;;;;;;5.67;5.00;;;19.80;95.90;;;;;;5013314;28;20792;-66
2023/09/30 11:57:00;;;;;;;7.20;5.70;;;19.80;96.80;;;;;;5012426;28;20466;-66
2023/09/30 11:59:27;;;;;;;8.03;6.30;;;20.00;97.50;;;;;;5012702;28;21039;-66
2023/09/30 12:01:55;;;;;;;6.10;4.90;;;20.30;96.70;;;;;;5012529;28;20453;-66
2023/09/30 12:04:22;;;;;;;7.00;5.67;;;20.60;97.10;;;;;;5013077;28;20887;-66
2023/09/30 12:06:49;;;;;;;6.33;5.10;;;20.90;97.00;;;;;;5012283;28;20491;-66
2023/09/30 12:09:22;;;;;;;4.87;4.40;;;21.10;96.40;;;;;;5012936;28;21177;-66
2023/09/30 12:11:49;;;;;;;7.87;5.23;;;21.40;97.20;;;;;;5012994;28;20479;-66
2023/09/30 12:14:15;;;;;;;6.10;4.73;;;21.60;96.40;;;;;;5011682;28;20531;-66
2023/09/30 12:16:45;;;;;;;6.20;5.60;;;21.90;96.00;;;;;;5012063;28;20458;-66
2023/09/30 12:19:15;;;;;;;6.00;4.77;;;22.10;95.40;;;;;;5012360;28;20511;-66
2023/09/30 12:21:42;;;;;;;10.57;6.00;;;22.20;95.00;;;;;;5012633;28;20455;-66
2023/09/30 12:24:10;;;;;;;6.20;5.63;;;22.50;95.80;;;;;;5012348;28;20447;-66
2023/09/30 12:26:41;;;;;;;5.60;5.10;;;22.60;94.30;;;;;;5012434;28;20492;-67
2023/09/30 12:29:09;;;;;;;5.33;4.93;;;22.70;94.00;;;;;;5012382;28;20460;-66
2023/09/30 12:31:36;;;;;;;6.03;5.43;;;22.60;93.10;;;;;;5012088;28;20487;-66
2023/09/30 12:34:03;;;;;;;6.83;4.90;;;22.50;93.50;;;;;;5011826;28;20464;-66
2023/09/30 12:36:32;;;;;;;7.83;6.03;;;22.20;93.40;;;;;;5011046;28;20448;-66
2023/09/30 12:38:59;;;;;;;6.43;5.50;;;22.00;93.10;;;;;;5012427;28;20449;-66
2023/09/30 12:41:26;;;;;;;9.43;5.90;;;21.90;93.20;;;;;;5012208;28;20985;-66
2023/09/30 12:43:53;;;;;;;5.97;5.30;;;21.70;93.20;;;;;;5011750;28;20539;-66
2023/09/30 12:46:20;;;;;;;7.47;5.70;;;21.50;93.00;;;;;;5011824;28;20494;-66
2023/09/30 12:48:48;;;;;;;7.80;6.17;;;21.30;93.30;;;;;;5011747;28;20476;-66
2023/09/30 12:51:15;;;;;;;5.37;4.87;;;21.40;94.90;;;;;;5012012;28;20461;-66